createdAt,value
2018-06-01T00:00:29.989Z,976.21
2018-06-01T00:01:29.916Z,976.23
2018-06-01T00:02:29.850Z,976.19
2018-06-01T00:03:30.657Z,976.18
2018-06-01T00:04:30.662Z,976.16
2018-06-01T00:05:29.630Z,976.19
2018-06-01T00:06:29.556Z,976.19
2018-06-01T00:07:29.501Z,976.23
2018-06-01T00:08:29.419Z,976.23
2018-06-01T00:09:29.342Z,976.24
2018-06-01T00:10:29.277Z,976.21
2018-06-01T00:11:29.218Z,976.23
2018-06-01T00:12:29.658Z,976.21
2018-06-01T00:13:29.659Z,976.19
2018-06-01T00:14:28.986Z,976.22
2018-06-01T00:15:28.912Z,976.19
2018-06-01T00:16:28.846Z,976.19
2018-06-01T00:17:28.773Z,976.21
2018-06-01T00:18:28.711Z,976.21
2018-06-01T00:19:28.623Z,976.22
2018-06-01T00:20:29.160Z,976.25
2018-06-01T00:21:28.502Z,976.26
2018-06-01T00:22:28.410Z,976.23
2018-06-01T00:23:28.337Z,976.27
2018-06-01T00:24:28.276Z,976.24
2018-06-01T00:25:28.195Z,976.29
2018-06-01T00:26:28.123Z,976.28
2018-06-01T00:27:28.054Z,976.30
2018-06-01T00:28:27.980Z,976.32
2018-06-01T00:29:27.907Z,976.30
2018-06-01T00:30:27.842Z,976.32
2018-06-01T00:31:27.766Z,976.31
2018-06-01T00:32:27.699Z,976.38
2018-06-01T00:33:27.621Z,976.40
2018-06-01T00:34:28.175Z,976.40
2018-06-01T00:35:28.170Z,976.37
2018-06-01T00:36:28.168Z,976.40
2018-06-01T00:37:28.168Z,976.48
2018-06-01T00:38:27.261Z,976.47
2018-06-01T00:39:27.188Z,976.46
2018-06-01T00:40:27.157Z,976.48
2018-06-01T00:41:27.045Z,976.47
2018-06-01T00:42:26.979Z,976.44
2018-06-01T00:43:27.714Z,976.47
2018-06-01T00:44:26.830Z,976.49
2018-06-01T00:45:27.673Z,976.45
2018-06-01T00:46:26.683Z,976.45
2018-06-01T00:47:26.616Z,976.45
2018-06-01T00:48:26.541Z,976.44
2018-06-01T00:49:26.468Z,976.47
2018-06-01T00:50:26.405Z,976.44
2018-06-01T00:51:27.173Z,976.49
2018-06-01T00:52:27.172Z,976.48
2018-06-01T00:53:26.181Z,976.48
2018-06-01T00:54:26.119Z,976.49
2018-06-01T00:55:26.036Z,976.52
2018-06-01T00:56:26.676Z,976.60
2018-06-01T00:57:25.892Z,976.59
2018-06-01T00:58:25.828Z,976.66
2018-06-01T00:59:26.673Z,976.70
2018-06-01T01:00:25.675Z,976.77
2018-06-01T01:01:26.676Z,976.78
2018-06-01T01:02:25.538Z,976.78
2018-06-01T01:03:26.176Z,976.80
2018-06-01T01:04:25.388Z,976.81
2018-06-01T01:05:27.177Z,976.82
2018-06-01T01:06:25.248Z,976.84
2018-06-01T01:07:25.172Z,976.86
2018-06-01T01:08:25.103Z,976.89
2018-06-01T01:09:25.041Z,976.95
2018-06-01T01:10:24.959Z,977.01
2018-06-01T01:11:24.884Z,977.03
2018-06-01T01:12:24.810Z,977.06
2018-06-01T01:13:24.752Z,977.07
2018-06-01T01:14:24.685Z,977.10
2018-06-01T01:15:24.592Z,977.11
2018-06-01T01:16:24.525Z,977.12
2018-06-01T01:17:24.455Z,977.10
2018-06-01T01:18:24.376Z,977.12
2018-06-01T01:19:24.310Z,977.09
2018-06-01T01:20:24.234Z,977.14
2018-06-01T01:21:24.162Z,977.16
2018-06-01T01:22:24.091Z,977.19
2018-06-01T01:23:24.014Z,977.20
2018-06-01T01:24:23.944Z,977.25
2018-06-01T01:25:23.877Z,977.27
2018-06-01T01:26:23.796Z,977.24
2018-06-01T01:27:23.730Z,977.31
2018-06-01T01:28:23.652Z,977.35
2018-06-01T01:29:23.580Z,977.37
2018-06-01T01:30:23.506Z,977.38
2018-06-01T01:31:23.452Z,977.43
2018-06-01T01:32:23.363Z,977.48
2018-06-01T01:33:23.293Z,977.56
2018-06-01T01:34:23.220Z,977.52
2018-06-01T01:35:23.148Z,977.51
2018-06-01T01:36:23.079Z,977.51
2018-06-01T01:37:23.001Z,977.52
2018-06-01T01:38:22.945Z,977.56
2018-06-01T01:39:22.859Z,977.57
2018-06-01T01:40:22.783Z,977.65
2018-06-01T01:41:22.710Z,977.61
2018-06-01T01:42:22.662Z,977.64
2018-06-01T01:43:22.566Z,977.70
2018-06-01T01:44:22.496Z,977.71
2018-06-01T01:45:22.420Z,977.75
2018-06-01T01:46:22.350Z,977.74
2018-06-01T01:47:22.275Z,977.88
2018-06-01T01:48:22.213Z,977.76
2018-06-01T01:49:22.160Z,977.82
2018-06-01T01:50:22.060Z,977.81
2018-06-01T01:51:21.987Z,977.78
2018-06-01T01:52:21.922Z,977.73
2018-06-01T01:53:21.839Z,977.79
2018-06-01T01:54:21.781Z,977.74
2018-06-01T01:55:21.696Z,977.82
2018-06-01T01:56:21.621Z,977.78
2018-06-01T01:57:21.561Z,977.75
2018-06-01T01:58:21.481Z,977.71
2018-06-01T01:59:21.406Z,977.74
2018-06-01T02:00:21.345Z,977.71
2018-06-01T02:01:21.261Z,977.67
2018-06-01T02:02:21.193Z,977.67
2018-06-01T02:03:21.115Z,977.67
2018-06-01T02:04:21.042Z,977.62
2018-06-01T02:05:20.969Z,977.71
2018-06-01T02:06:20.909Z,977.68
2018-06-01T02:07:20.826Z,977.70
2018-06-01T02:08:20.766Z,977.73
2018-06-01T02:09:20.683Z,977.79
2018-06-01T02:10:20.609Z,977.75
2018-06-01T02:11:20.533Z,977.76
2018-06-01T02:12:20.466Z,977.76
2018-06-01T02:13:20.387Z,977.68
2018-06-01T02:14:20.314Z,977.73
2018-06-01T02:15:20.243Z,977.71
2018-06-01T02:16:20.177Z,977.67
2018-06-01T02:17:20.102Z,977.68
2018-06-01T02:18:20.024Z,977.71
2018-06-01T02:19:19.962Z,977.70
2018-06-01T02:20:19.896Z,977.69
2018-06-01T02:21:19.805Z,977.71
2018-06-01T02:22:19.733Z,977.72
2018-06-01T02:23:19.675Z,977.71
2018-06-01T02:24:19.595Z,977.69
2018-06-01T02:25:19.515Z,977.71
2018-06-01T02:26:19.442Z,977.72
2018-06-01T02:27:19.381Z,977.73
2018-06-01T02:28:19.302Z,977.79
2018-06-01T02:29:19.229Z,977.83
2018-06-01T02:30:19.153Z,977.84
2018-06-01T02:31:19.078Z,977.88
2018-06-01T02:32:19.015Z,977.80
2018-06-01T02:33:19.003Z,977.80
2018-06-01T02:34:18.875Z,977.79
2018-06-01T02:35:18.799Z,977.78
2018-06-01T02:36:18.714Z,977.81
2018-06-01T02:37:18.640Z,977.79
2018-06-01T02:38:18.573Z,977.87
2018-06-01T02:39:18.498Z,977.84
2018-06-01T02:40:18.425Z,977.84
2018-06-01T02:41:18.374Z,977.86
2018-06-01T02:42:18.283Z,977.88
2018-06-01T02:43:18.208Z,977.87
2018-06-01T02:44:18.134Z,977.91
2018-06-01T02:45:18.062Z,977.92
2018-06-01T02:46:17.988Z,977.95
2018-06-01T02:47:17.927Z,977.92
2018-06-01T02:48:17.843Z,977.98
2018-06-01T02:49:17.770Z,977.97
2018-06-01T02:50:17.700Z,978.01
2018-06-01T02:51:17.627Z,977.99
2018-06-01T02:52:17.563Z,977.97
2018-06-01T02:53:17.487Z,978.01
2018-06-01T02:54:17.411Z,978.03
2018-06-01T02:55:17.336Z,978.01
2018-06-01T02:56:17.277Z,978.04
2018-06-01T02:57:17.190Z,978.04
2018-06-01T02:58:17.116Z,978.05
2018-06-01T02:59:17.048Z,978.02
2018-06-01T03:00:16.984Z,978.03
2018-06-01T03:01:16.896Z,978.04
2018-06-01T03:02:16.838Z,978.10
2018-06-01T03:03:16.754Z,978.03
2018-06-01T03:04:16.681Z,978.10
2018-06-01T03:05:16.617Z,978.12
2018-06-01T03:06:16.534Z,978.17
2018-06-01T03:07:16.465Z,978.18
2018-06-01T03:08:16.401Z,978.18
2018-06-01T03:09:16.320Z,978.19
2018-06-01T03:10:16.248Z,978.16
2018-06-01T03:11:16.195Z,978.24
2018-06-01T03:12:16.108Z,978.22
2018-06-01T03:13:16.025Z,978.23
2018-06-01T03:14:15.953Z,978.30
2018-06-01T03:15:15.883Z,978.33
2018-06-01T03:16:15.810Z,978.32
2018-06-01T03:17:15.742Z,978.31
2018-06-01T03:18:15.663Z,978.31
2018-06-01T03:19:15.591Z,978.31
2018-06-01T03:20:15.519Z,978.31
2018-06-01T03:21:15.444Z,978.35
2018-06-01T03:22:15.378Z,978.35
2018-06-01T03:23:15.310Z,978.39
2018-06-01T03:24:15.230Z,978.48
2018-06-01T03:25:15.154Z,978.45
2018-06-01T03:26:15.142Z,978.46
2018-06-01T03:27:15.014Z,978.49
2018-06-01T03:28:14.939Z,978.53
2018-06-01T03:29:14.868Z,978.56
2018-06-01T03:30:14.800Z,978.61
2018-06-01T03:31:14.770Z,978.61
2018-06-01T03:32:14.651Z,978.60
2018-06-01T03:33:14.574Z,978.62
2018-06-01T03:34:14.506Z,978.61
2018-06-01T03:35:14.431Z,978.64
2018-06-01T03:36:14.369Z,978.65
2018-06-01T03:37:14.285Z,978.63
2018-06-01T03:38:14.217Z,978.63
2018-06-01T03:39:14.141Z,978.64
2018-06-01T03:40:14.073Z,978.64
2018-06-01T03:41:13.995Z,978.60
2018-06-01T03:42:13.927Z,978.57
2018-06-01T03:43:13.850Z,978.59
2018-06-01T03:44:13.784Z,978.59
2018-06-01T03:45:13.707Z,978.60
2018-06-01T03:46:13.639Z,978.61
2018-06-01T03:47:13.563Z,978.61
2018-06-01T03:48:13.489Z,978.60
2018-06-01T03:49:13.430Z,978.62
2018-06-01T03:50:13.346Z,978.61
2018-06-01T03:51:13.272Z,978.61
2018-06-01T03:52:13.202Z,978.63
2018-06-01T03:53:13.130Z,978.65
2018-06-01T03:54:13.068Z,978.66
2018-06-01T03:55:12.988Z,978.65
2018-06-01T03:56:12.912Z,978.69
2018-06-01T03:57:12.838Z,978.72
2018-06-01T03:58:12.768Z,978.71
2018-06-01T03:59:12.696Z,978.72
2018-06-01T04:00:12.628Z,978.71
2018-06-01T04:01:12.550Z,978.71
2018-06-01T04:02:12.481Z,978.73
2018-06-01T04:03:12.406Z,978.77
2018-06-01T04:04:12.334Z,978.79
2018-06-01T04:05:12.259Z,978.82
2018-06-01T04:06:12.195Z,978.85
2018-06-01T04:07:12.116Z,978.85
2018-06-01T04:08:12.042Z,978.91
2018-06-01T04:09:11.971Z,978.88
2018-06-01T04:10:11.898Z,978.87
2018-06-01T04:11:11.825Z,978.90
2018-06-01T04:12:11.761Z,978.92
2018-06-01T04:13:11.680Z,978.92
2018-06-01T04:14:11.610Z,978.99
2018-06-01T04:15:11.539Z,979.01
2018-06-01T04:16:11.470Z,979.01
2018-06-01T04:17:11.394Z,979.05
2018-06-01T04:18:11.327Z,979.05
2018-06-01T04:19:11.246Z,979.05
2018-06-01T04:20:11.174Z,979.05
2018-06-01T04:21:11.100Z,979.01
2018-06-01T04:22:11.034Z,979.06
2018-06-01T04:23:10.956Z,979.04
2018-06-01T04:24:10.890Z,979.09
2018-06-01T04:25:10.813Z,979.10
2018-06-01T04:26:10.739Z,979.09
2018-06-01T04:27:10.667Z,979.10
2018-06-01T04:28:10.598Z,979.08
2018-06-01T04:29:10.541Z,979.12
2018-06-01T04:30:10.462Z,979.13
2018-06-01T04:31:10.377Z,979.16
2018-06-01T04:32:10.306Z,979.15
2018-06-01T04:33:10.231Z,979.19
2018-06-01T04:34:10.161Z,979.20
2018-06-01T04:35:10.095Z,979.19
2018-06-01T04:36:10.035Z,979.19
2018-06-01T04:37:09.947Z,979.21
2018-06-01T04:38:09.874Z,979.21
2018-06-01T04:39:09.802Z,979.23
2018-06-01T04:40:09.725Z,979.24
2018-06-01T04:41:09.654Z,979.25
2018-06-01T04:42:09.591Z,979.26
2018-06-01T04:43:09.624Z,979.25
2018-06-01T04:44:09.438Z,979.33
2018-06-01T04:45:09.366Z,979.32
2018-06-01T04:46:09.295Z,979.33
2018-06-01T04:47:09.234Z,979.32
2018-06-01T04:48:09.147Z,979.33
2018-06-01T04:49:09.081Z,979.33
2018-06-01T04:50:09.007Z,979.33
2018-06-01T04:51:08.932Z,979.29
2018-06-01T04:52:08.864Z,979.31
2018-06-01T04:53:08.792Z,979.31
2018-06-01T04:54:08.715Z,979.33
2018-06-01T04:55:08.642Z,979.35
2018-06-01T04:56:08.580Z,979.34
2018-06-01T04:57:08.496Z,979.38
2018-06-01T04:58:08.424Z,979.37
2018-06-01T04:59:08.356Z,979.36
2018-06-01T05:00:08.281Z,979.38
2018-06-01T05:01:08.207Z,979.33
2018-06-01T05:02:08.133Z,979.37
2018-06-01T05:03:08.072Z,979.43
2018-06-01T05:04:07.995Z,979.52
2018-06-01T05:05:07.929Z,979.53
2018-06-01T05:06:07.848Z,979.56
2018-06-01T05:07:07.776Z,979.61
2018-06-01T05:08:07.702Z,979.62
2018-06-01T05:09:07.632Z,979.62
2018-06-01T05:10:07.556Z,979.65
2018-06-01T05:11:07.493Z,979.63
2018-06-01T05:12:07.414Z,979.69
2018-06-01T05:13:07.341Z,979.68
2018-06-01T05:14:07.268Z,979.66
2018-06-01T05:15:07.195Z,979.67
2018-06-01T05:16:07.126Z,979.68
2018-06-01T05:17:07.059Z,979.69
2018-06-01T05:18:06.981Z,979.66
2018-06-01T05:19:06.907Z,979.71
2018-06-01T05:20:06.834Z,979.68
2018-06-01T05:21:06.759Z,979.67
2018-06-01T05:22:06.688Z,979.72
2018-06-01T05:23:06.625Z,979.70
2018-06-01T05:24:06.546Z,979.72
2018-06-01T05:25:06.469Z,979.75
2018-06-01T05:26:06.402Z,979.76
2018-06-01T05:27:06.329Z,979.77
2018-06-01T05:28:06.256Z,979.78
2018-06-01T05:29:06.185Z,979.83
2018-06-01T05:30:06.108Z,979.80
2018-06-01T05:31:06.039Z,979.77
2018-06-01T05:32:05.963Z,979.77
2018-06-01T05:33:05.898Z,979.77
2018-06-01T05:34:05.821Z,979.77
2018-06-01T05:35:05.801Z,979.78
2018-06-01T05:36:05.679Z,979.73
2018-06-01T05:37:05.601Z,979.79
2018-06-01T05:38:05.527Z,979.79
2018-06-01T05:39:05.455Z,979.77
2018-06-01T05:40:05.384Z,979.79
2018-06-01T05:41:05.321Z,979.74
2018-06-01T05:42:05.239Z,979.77
2018-06-01T05:43:05.165Z,979.69
2018-06-01T05:44:05.096Z,979.73
2018-06-01T05:45:05.024Z,979.70
2018-06-01T05:46:04.948Z,979.72
2018-06-01T05:47:04.884Z,979.74
2018-06-01T05:48:04.808Z,979.77
2018-06-01T05:49:04.730Z,979.73
2018-06-01T05:50:04.660Z,979.76
2018-06-01T05:51:04.590Z,979.73
2018-06-01T05:52:04.519Z,979.70
2018-06-01T05:53:04.449Z,979.75
2018-06-01T05:54:04.372Z,979.75
2018-06-01T05:55:04.304Z,979.76
2018-06-01T05:56:04.233Z,979.75
2018-06-01T05:57:04.157Z,979.72
2018-06-01T05:58:04.089Z,979.70
2018-06-01T05:59:04.011Z,979.69
2018-06-01T06:00:03.946Z,979.71
2018-06-01T06:01:03.869Z,979.74
2018-06-01T06:02:03.795Z,979.69
2018-06-01T06:03:03.724Z,979.76
2018-06-01T06:04:03.650Z,979.77
2018-06-01T06:05:03.580Z,979.71
2018-06-01T06:06:03.512Z,979.74
2018-06-01T06:07:03.439Z,979.73
2018-06-01T06:08:03.367Z,979.79
2018-06-01T06:09:03.293Z,979.79
2018-06-01T06:10:03.219Z,979.78
2018-06-01T06:11:03.147Z,979.80
2018-06-01T06:12:03.086Z,979.80
2018-06-01T06:13:03.012Z,979.81
2018-06-01T06:14:02.933Z,979.81
2018-06-01T06:15:02.866Z,979.82
2018-06-01T06:16:02.791Z,979.83
2018-06-01T06:17:02.716Z,979.86
2018-06-01T06:18:02.651Z,979.87
2018-06-01T06:19:02.577Z,979.91
2018-06-01T06:20:02.513Z,979.85
2018-06-01T06:21:02.432Z,979.89
2018-06-01T06:22:02.387Z,979.86
2018-06-01T06:23:02.291Z,979.83
2018-06-01T06:24:02.221Z,979.83
2018-06-01T06:25:02.142Z,979.90
2018-06-01T06:26:02.076Z,979.87
2018-06-01T06:27:02.002Z,979.89
2018-06-01T06:28:01.933Z,979.91
2018-06-01T06:29:01.858Z,979.95
2018-06-01T06:30:01.789Z,979.91
2018-06-01T06:31:01.715Z,979.97
2018-06-01T06:32:01.638Z,979.92
2018-06-01T06:33:01.574Z,979.98
2018-06-01T06:34:01.496Z,979.97
2018-06-01T06:35:01.432Z,979.99
2018-06-01T06:36:01.358Z,980.02
2018-06-01T06:37:01.281Z,979.99
2018-06-01T06:38:01.243Z,980.05
2018-06-01T06:39:01.140Z,980.02
2018-06-01T06:40:01.069Z,980.06
2018-06-01T06:41:00.999Z,980.03
2018-06-01T06:42:00.941Z,980.03
2018-06-01T06:43:00.849Z,980.02
2018-06-01T06:44:00.780Z,980.06
2018-06-01T06:45:00.711Z,980.09
2018-06-01T06:46:00.633Z,980.05
2018-06-01T06:47:00.567Z,980.09
2018-06-01T06:48:00.498Z,980.16
2018-06-01T06:49:00.426Z,980.09
2018-06-01T06:50:00.345Z,980.17
2018-06-01T06:51:00.278Z,980.13
2018-06-01T06:52:00.206Z,980.15
2018-06-01T06:53:00.137Z,980.16
2018-06-01T06:54:00.069Z,980.18
2018-06-01T06:54:59.995Z,980.20
2018-06-01T06:55:59.923Z,980.22
2018-06-01T06:56:59.847Z,980.18
2018-06-01T06:57:59.776Z,980.18
2018-06-01T06:58:59.708Z,980.17
2018-06-01T06:59:59.648Z,980.21
2018-06-01T07:00:59.568Z,980.20
2018-06-01T07:01:59.492Z,980.24
2018-06-01T07:02:59.417Z,980.35
2018-06-01T07:03:59.348Z,980.33
2018-06-01T07:04:59.275Z,980.31
2018-06-01T07:05:59.204Z,980.36
2018-06-01T07:06:59.140Z,980.35
2018-06-01T07:07:59.069Z,980.41
2018-06-01T07:08:58.987Z,980.39
2018-06-01T07:09:58.920Z,980.40
2018-06-01T07:10:58.847Z,980.38
2018-06-01T07:11:58.777Z,980.35
2018-06-01T07:12:58.706Z,980.36
2018-06-01T07:13:58.642Z,980.39
2018-06-01T07:14:58.561Z,980.36
2018-06-01T07:15:58.495Z,980.38
2018-06-01T07:16:58.425Z,980.40
2018-06-01T07:17:58.352Z,980.40
2018-06-01T07:18:58.277Z,980.34
2018-06-01T07:19:58.230Z,980.36
2018-06-01T07:20:58.137Z,980.34
2018-06-01T07:21:58.061Z,980.36
2018-06-01T07:22:57.991Z,980.37
2018-06-01T07:23:57.924Z,980.38
2018-06-01T07:24:57.847Z,980.37
2018-06-01T07:25:57.780Z,980.39
2018-06-01T07:26:57.705Z,980.36
2018-06-01T07:27:57.633Z,980.36
2018-06-01T07:28:57.567Z,980.38
2018-06-01T07:29:57.491Z,980.37
2018-06-01T07:30:57.418Z,980.43
2018-06-01T07:31:57.354Z,980.42
2018-06-01T07:32:57.277Z,980.37
2018-06-01T07:33:57.210Z,980.40
2018-06-01T07:34:57.132Z,980.45
2018-06-01T07:35:57.062Z,980.41
2018-06-01T07:36:56.998Z,980.46
2018-06-01T07:37:56.927Z,980.53
2018-06-01T07:38:56.854Z,980.51
2018-06-01T07:39:56.779Z,980.49
2018-06-01T07:40:56.709Z,980.51
2018-06-01T07:41:56.642Z,980.53
2018-06-01T07:42:56.574Z,980.57
2018-06-01T07:43:56.500Z,980.56
2018-06-01T07:44:56.422Z,980.57
2018-06-01T07:45:56.351Z,980.56
2018-06-01T07:46:56.322Z,980.59
2018-06-01T07:47:56.209Z,980.61
2018-06-01T07:48:56.143Z,980.57
2018-06-01T07:49:56.067Z,980.62
2018-06-01T07:50:55.995Z,980.61
2018-06-01T07:51:55.924Z,980.61
2018-06-01T07:52:55.852Z,980.57
2018-06-01T07:53:55.784Z,980.56
2018-06-01T07:54:55.726Z,980.58
2018-06-01T07:55:55.652Z,980.57
2018-06-01T07:56:55.571Z,980.62
2018-06-01T07:57:55.497Z,980.64
2018-06-01T07:58:55.431Z,980.57
2018-06-01T07:59:55.357Z,980.57
2018-06-01T08:00:55.296Z,980.61
2018-06-01T08:01:55.214Z,980.59
2018-06-01T08:02:55.143Z,980.62
2018-06-01T08:03:55.071Z,980.64
2018-06-01T08:04:54.999Z,980.61
2018-06-01T08:05:54.931Z,980.64
2018-06-01T08:06:54.876Z,980.63
2018-06-01T08:07:54.791Z,980.66
2018-06-01T08:08:54.718Z,980.64
2018-06-01T08:09:54.652Z,980.66
2018-06-01T08:10:54.576Z,980.65
2018-06-01T08:11:54.511Z,980.67
2018-06-01T08:12:54.439Z,980.71
2018-06-01T08:13:54.368Z,980.69
2018-06-01T08:14:54.293Z,980.72
2018-06-01T08:15:54.246Z,980.75
2018-06-01T08:16:54.151Z,980.77
2018-06-01T08:17:54.081Z,980.73
2018-06-01T08:18:54.021Z,980.77
2018-06-01T08:19:53.942Z,980.75
2018-06-01T08:20:53.875Z,980.73
2018-06-01T08:21:53.801Z,980.79
2018-06-01T08:22:53.727Z,980.75
2018-06-01T08:23:53.657Z,980.78
2018-06-01T08:24:53.596Z,980.76
2018-06-01T08:25:53.515Z,980.78
2018-06-01T08:26:53.457Z,980.78
2018-06-01T08:27:53.379Z,980.81
2018-06-01T08:28:53.901Z,980.79
2018-06-01T08:29:53.232Z,980.81
2018-06-01T08:30:53.165Z,980.79
2018-06-01T08:31:53.100Z,980.79
2018-06-01T08:32:53.023Z,980.78
2018-06-01T08:33:52.948Z,980.80
2018-06-01T08:34:52.880Z,980.83
2018-06-01T08:35:52.807Z,980.87
2018-06-01T08:36:52.745Z,980.86
2018-06-01T08:37:52.664Z,980.89
2018-06-01T08:38:52.596Z,980.90
2018-06-01T08:39:52.523Z,980.87
2018-06-01T08:40:52.452Z,980.88
2018-06-01T08:41:52.381Z,980.85
2018-06-01T08:42:52.320Z,980.85
2018-06-01T08:43:52.243Z,980.82
2018-06-01T08:44:52.172Z,980.87
2018-06-01T08:45:52.101Z,980.85
2018-06-01T08:46:52.029Z,980.86
2018-06-01T08:47:51.958Z,980.81
2018-06-01T08:48:51.930Z,980.84
2018-06-01T08:49:51.819Z,980.85
2018-06-01T08:50:51.746Z,980.84
2018-06-01T08:51:51.679Z,980.83
2018-06-01T08:52:51.606Z,980.91
2018-06-01T08:53:51.534Z,980.91
2018-06-01T08:54:51.475Z,980.93
2018-06-01T08:55:51.396Z,980.91
2018-06-01T08:56:51.327Z,980.92
2018-06-01T08:57:51.256Z,980.93
2018-06-01T08:58:51.200Z,980.88
2018-06-01T08:59:51.119Z,980.89
2018-06-01T09:00:51.057Z,980.93
2018-06-01T09:01:50.973Z,980.92
2018-06-01T09:02:50.901Z,980.94
2018-06-01T09:03:50.842Z,980.94
2018-06-01T09:04:50.771Z,980.95
2018-06-01T09:05:50.691Z,980.97
2018-06-01T09:06:50.627Z,981.02
2018-06-01T09:07:50.552Z,981.00
2018-06-01T09:08:50.485Z,981.02
2018-06-01T09:09:50.413Z,981.02
2018-06-01T09:10:50.339Z,980.99
2018-06-01T09:11:50.289Z,981.00
2018-06-01T09:12:50.211Z,981.02
2018-06-01T09:13:50.131Z,981.00
2018-06-01T09:14:50.058Z,981.01
2018-06-01T09:15:49.988Z,981.00
2018-06-01T09:16:49.977Z,981.04
2018-06-01T09:17:49.846Z,981.04
2018-06-01T09:18:49.782Z,981.07
2018-06-01T09:19:49.704Z,981.06
2018-06-01T09:20:49.635Z,981.06
2018-06-01T09:21:49.570Z,981.04
2018-06-01T09:22:49.569Z,981.06
2018-06-01T09:23:49.421Z,981.02
2018-06-01T09:24:49.362Z,981.07
2018-06-01T09:25:49.278Z,981.04
2018-06-01T09:26:49.208Z,981.07
2018-06-01T09:27:49.137Z,981.09
2018-06-01T09:28:49.065Z,981.07
2018-06-01T09:29:48.998Z,981.07
2018-06-01T09:30:48.935Z,981.06
2018-06-01T09:31:48.861Z,981.09
2018-06-01T09:32:48.782Z,981.10
2018-06-01T09:33:48.717Z,981.06
2018-06-01T09:34:48.640Z,981.09
2018-06-01T09:35:48.570Z,981.08
2018-06-01T09:36:48.501Z,981.08
2018-06-01T09:37:48.430Z,981.08
2018-06-01T09:38:48.366Z,981.08
2018-06-01T09:39:48.286Z,981.05
2018-06-01T09:40:48.221Z,981.07
2018-06-01T09:41:48.144Z,981.05
2018-06-01T09:42:48.078Z,981.08
2018-06-01T09:43:48.002Z,981.08
2018-06-01T09:44:47.936Z,981.08
2018-06-01T09:45:47.861Z,981.09
2018-06-01T09:46:47.816Z,981.06
2018-06-01T09:47:47.718Z,981.08
2018-06-01T09:48:47.651Z,981.12
2018-06-01T09:49:47.585Z,981.10
2018-06-01T09:50:47.517Z,981.07
2018-06-01T09:51:47.436Z,981.09
2018-06-01T09:52:47.366Z,981.11
2018-06-01T09:53:47.298Z,981.12
2018-06-01T09:54:47.225Z,981.13
2018-06-01T09:55:47.162Z,981.09
2018-06-01T09:56:47.093Z,981.08
2018-06-01T09:57:47.017Z,981.11
2018-06-01T09:58:46.945Z,981.08
2018-06-01T09:59:46.876Z,981.09
2018-06-01T10:00:46.864Z,981.15
2018-06-01T10:01:46.750Z,981.09
2018-06-01T10:02:46.755Z,981.12
2018-06-01T10:03:46.590Z,981.15
2018-06-01T10:04:46.518Z,981.16
2018-06-01T10:05:46.458Z,981.11
2018-06-01T10:06:46.381Z,981.13
2018-06-01T10:07:46.310Z,981.06
2018-06-01T10:08:46.244Z,981.07
2018-06-01T10:09:46.177Z,981.07
2018-06-01T10:10:46.102Z,981.05
2018-06-01T10:11:46.033Z,981.11
2018-06-01T10:12:46.041Z,981.11
2018-06-01T10:13:45.897Z,981.10
2018-06-01T10:14:45.831Z,981.07
2018-06-01T10:15:45.753Z,981.07
2018-06-01T10:16:45.685Z,981.04
2018-06-01T10:17:45.616Z,981.03
2018-06-01T10:18:45.551Z,981.03
2018-06-01T10:19:45.474Z,981.01
2018-06-01T10:20:45.411Z,980.99
2018-06-01T10:21:45.337Z,981.08
2018-06-01T10:22:45.283Z,981.04
2018-06-01T10:23:45.196Z,981.05
2018-06-01T10:24:45.128Z,981.06
2018-06-01T10:25:45.067Z,981.08
2018-06-01T10:26:45.000Z,981.12
2018-06-01T10:27:44.921Z,981.04
2018-06-01T10:28:44.848Z,981.02
2018-06-01T10:29:44.780Z,981.07
2018-06-01T10:30:44.713Z,981.05
2018-06-01T10:31:44.641Z,981.05
2018-06-01T10:32:44.577Z,981.02
2018-06-01T10:33:44.499Z,981.03
2018-06-01T10:34:44.431Z,981.08
2018-06-01T10:35:44.360Z,981.01
2018-06-01T10:36:44.290Z,981.01
2018-06-01T10:37:44.223Z,981.04
2018-06-01T10:38:44.161Z,981.05
2018-06-01T10:39:44.104Z,981.00
2018-06-01T10:40:44.013Z,981.01
2018-06-01T10:41:43.941Z,980.98
2018-06-01T10:42:43.876Z,980.94
2018-06-01T10:43:43.802Z,980.93
2018-06-01T10:44:43.735Z,980.92
2018-06-01T10:45:43.661Z,980.91
2018-06-01T10:46:43.591Z,980.94
2018-06-01T10:47:43.521Z,980.88
2018-06-01T10:48:43.452Z,980.90
2018-06-01T10:49:43.381Z,980.89
2018-06-01T10:50:43.327Z,980.91
2018-06-01T10:51:43.241Z,980.94
2018-06-01T10:52:43.172Z,980.90
2018-06-01T10:53:43.103Z,980.91
2018-06-01T10:54:43.074Z,980.92
2018-06-01T10:55:42.964Z,980.91
2018-06-01T10:56:42.903Z,980.87
2018-06-01T10:57:42.822Z,980.94
2018-06-01T10:58:42.753Z,980.93
2018-06-01T10:59:42.682Z,980.92
2018-06-01T11:00:42.614Z,980.92
2018-06-01T11:01:42.551Z,980.93
2018-06-01T11:02:42.483Z,980.90
2018-06-01T11:03:42.409Z,980.95
2018-06-01T11:04:42.370Z,980.89
2018-06-01T11:05:42.264Z,980.92
2018-06-01T11:06:42.197Z,980.89
2018-06-01T11:07:42.135Z,980.89
2018-06-01T11:08:42.057Z,980.85
2018-06-01T11:09:41.984Z,980.89
2018-06-01T11:10:41.918Z,980.85
2018-06-01T11:11:41.844Z,980.82
2018-06-01T11:12:41.776Z,980.81
2018-06-01T11:13:41.739Z,980.80
2018-06-01T11:14:41.638Z,980.81
2018-06-01T11:15:41.570Z,980.78
2018-06-01T11:16:41.510Z,980.73
2018-06-01T11:17:41.428Z,980.76
2018-06-01T11:18:41.364Z,980.75
2018-06-01T11:19:41.299Z,980.74
2018-06-01T11:20:41.218Z,980.66
2018-06-01T11:21:41.150Z,980.68
2018-06-01T11:22:41.081Z,980.65
2018-06-01T11:23:41.013Z,980.60
2018-06-01T11:24:40.947Z,980.64
2018-06-01T11:25:40.880Z,980.64
2018-06-01T11:26:40.808Z,980.59
2018-06-01T11:27:40.739Z,980.58
2018-06-01T11:28:40.671Z,980.61
2018-06-01T11:29:40.597Z,980.61
2018-06-01T11:30:40.531Z,980.66
2018-06-01T11:31:40.471Z,980.72
2018-06-01T11:32:40.400Z,980.61
2018-06-01T11:33:40.322Z,980.62
2018-06-01T11:34:40.254Z,980.62
2018-06-01T11:35:40.190Z,980.68
2018-06-01T11:36:40.114Z,980.61
2018-06-01T11:37:40.056Z,980.61
2018-06-01T11:38:39.980Z,980.61
2018-06-01T11:39:39.923Z,980.61
2018-06-01T11:40:39.842Z,980.56
2018-06-01T11:41:39.771Z,980.59
2018-06-01T11:42:39.703Z,980.60
2018-06-01T11:43:39.647Z,980.62
2018-06-01T11:44:39.566Z,980.62
2018-06-01T11:45:39.500Z,980.61
2018-06-01T11:46:39.426Z,980.63
2018-06-01T11:47:39.360Z,980.62
2018-06-01T11:48:39.298Z,980.71
2018-06-01T11:49:39.223Z,980.63
2018-06-01T11:50:39.153Z,980.69
2018-06-01T11:51:39.093Z,980.65
2018-06-01T11:52:39.014Z,980.62
2018-06-01T11:53:38.951Z,980.62
2018-06-01T11:54:38.888Z,980.61
2018-06-01T11:55:38.810Z,980.64
2018-06-01T11:56:38.740Z,980.60
2018-06-01T11:57:38.674Z,980.63
2018-06-01T11:58:38.609Z,980.66
2018-06-01T11:59:38.541Z,980.64
2018-06-01T12:00:38.471Z,980.70
2018-06-01T12:01:38.439Z,980.72
2018-06-01T12:02:38.334Z,980.70
2018-06-01T12:03:38.265Z,980.67
2018-06-01T12:04:38.196Z,980.71
2018-06-01T12:05:38.130Z,980.65
2018-06-01T12:06:38.065Z,980.63
2018-06-01T12:07:37.992Z,980.64
2018-06-01T12:08:37.927Z,980.64
2018-06-01T12:09:37.859Z,980.58
2018-06-01T12:10:37.801Z,980.58
2018-06-01T12:11:37.722Z,980.58
2018-06-01T12:12:37.659Z,980.55
2018-06-01T12:13:37.590Z,980.60
2018-06-01T12:14:37.519Z,980.51
2018-06-01T12:15:37.452Z,980.53
2018-06-01T12:16:37.383Z,980.50
2018-06-01T12:17:37.382Z,980.50
2018-06-01T12:18:37.255Z,980.48
2018-06-01T12:19:37.188Z,980.50
2018-06-01T12:20:37.118Z,980.50
2018-06-01T12:21:37.044Z,980.49
2018-06-01T12:22:36.994Z,980.42
2018-06-01T12:23:36.911Z,980.40
2018-06-01T12:24:36.851Z,980.40
2018-06-01T12:25:36.775Z,980.42
2018-06-01T12:26:36.706Z,980.40
2018-06-01T12:27:36.639Z,980.39